Time;durP1;ratioP1;P1;durP2;ratioP2;P2;SDS_P1;SDS_P2;PMS_P1;PMS_P2;Temp;Humidity;BMP_temperature;BMP_pressure;BME280_temperature;BME280_humidity;BME280_pressure;Samples;Min_cycle;Max_cycle;Signal;HPM_P1;HPM_P2
2022/10/19 00:02:01;;;;;;;16.90;14.23;;;;;;;12.40;100.00;100452.88;5012623;28;20029;-90
2022/10/19 00:04:27;;;;;;;22.00;15.02;;;;;;;12.30;100.00;100441.06;5016051;28;20120;-90
2022/10/19 00:06:53;;;;;;;16.70;13.52;;;;;;;12.27;100.00;100436.00;5016569;28;20029;-90
2022/10/19 00:09:18;;;;;;;16.67;13.98;;;;;;;12.23;100.00;100435.28;5033424;28;20531;-89
2022/10/19 00:11:46;;;;;;;18.20;15.85;;;;;;;12.15;100.00;100438.19;4993217;28;20436;-90
2022/10/19 00:14:16;;;;;;;18.45;14.25;;;;;;;12.03;100.00;100433.47;4993453;28;20034;-90
2022/10/19 00:16:43;;;;;;;19.55;14.20;;;;;;;12.07;100.00;100449.84;4993131;28;20618;-90
2022/10/19 00:19:15;;;;;;;20.48;15.23;;;;;;;12.07;100.00;100442.03;4993217;28;20030;-90
2022/10/19 00:21:40;;;;;;;17.05;14.10;;;;;;;12.03;100.00;100438.69;4993074;28;20034;-89
2022/10/19 00:24:07;;;;;;;19.60;13.88;;;;;;;12.10;100.00;100450.59;4976986;28;20429;-90
2022/10/19 00:26:33;;;;;;;18.80;14.75;;;;;;;12.10;100.00;100444.53;4976625;28;20158;-89
2022/10/19 00:28:59;;;;;;;16.98;13.68;;;;;;;12.14;100.00;100452.16;4993509;28;20062;-90
2022/10/19 00:31:25;;;;;;;17.25;14.90;;;;;;;12.09;100.00;100450.63;4977159;28;20097;-90
2022/10/19 00:33:50;;;;;;;19.67;13.88;;;;;;;12.08;100.00;100449.78;4993045;28;20129;-91
2022/10/19 00:36:25;;;;;;;16.52;13.93;;;;;;;12.07;100.00;100450.69;4977020;28;20038;-88
2022/10/19 00:38:51;;;;;;;21.10;15.25;;;;;;;12.06;100.00;100435.09;4993032;28;20045;-88
2022/10/19 00:41:18;;;;;;;18.85;14.75;;;;;;;12.04;100.00;100440.38;4976743;28;20386;-88
2022/10/19 00:44:12;;;;;;;20.55;14.82;;;;;;;12.02;100.00;100444.81;5010881;28;20109;-88
2022/10/19 00:46:43;;;;;;;19.17;15.75;;;;;;;11.97;100.00;100444.16;4995933;28;20568;-88
2022/10/19 00:49:36;;;;;;;20.45;16.05;;;;;;;11.92;100.00;100436.47;5014532;28;20030;-89
2022/10/19 00:52:05;;;;;;;24.20;15.68;;;;;;;11.93;100.00;100435.59;4996061;28;20061;-88
2022/10/19 00:54:31;;;;;;;23.85;16.00;;;;;;;12.03;100.00;100446.50;5012387;28;20072;-88
2022/10/19 00:56:58;;;;;;;20.83;16.63;;;;;;;12.04;100.00;100431.69;4996112;28;20120;-88
2022/10/19 00:59:25;;;;;;;24.02;16.88;;;;;;;12.12;100.00;100434.84;5012656;28;20034;-89
2022/10/19 01:01:53;;;;;;;21.88;16.63;;;;;;;12.15;100.00;100437.34;5011987;28;20384;-88
2022/10/19 01:04:24;;;;;;;21.60;16.90;;;;;;;11.98;100.00;100396.25;5012022;28;20033;-88
2022/10/19 01:06:50;;;;;;;21.13;17.08;;;;;;;12.11;100.00;100422.72;4995553;28;20064;-88
2022/10/19 01:09:15;;;;;;;21.85;18.40;;;;;;;12.05;100.00;100410.75;4995685;28;20142;-88
2022/10/19 01:12:35;;;;;;;21.80;16.23;;;;;;;12.12;100.00;100427.84;4995599;28;20022;-89
2022/10/19 01:15:29;;;;;;;19.23;16.08;;;;;;;12.15;100.00;100432.97;4953593;28;20683;-88
2022/10/19 01:18:01;;;;;;;21.30;17.15;;;;;;;12.14;100.00;100426.06;4915445;29;20499;-88
2022/10/19 01:20:45;;;;;;;19.17;16.27;;;;;;;12.15;100.00;100424.28;4915681;29;20032;-88
2022/10/19 01:23:34;;;;;;;21.13;16.25;;;;;;;12.17;100.00;100423.28;4894720;29;20141;-88
2022/10/19 01:26:13;;;;;;;22.77;16.88;;;;;;;12.10;100.00;100411.41;4877602;29;20033;-88
2022/10/19 01:28:50;;;;;;;22.35;16.45;;;;;;;12.18;100.00;100424.16;4901757;29;20035;-88
2022/10/19 01:31:24;;;;;;;20.50;17.13;;;;;;;12.17;100.00;100419.84;4918409;29;20140;-88
2022/10/19 01:33:55;;;;;;;21.23;17.27;;;;;;;12.22;100.00;100420.53;4934329;29;20063;-88
2022/10/19 01:36:46;;;;;;;17.98;15.95;;;;;;;12.20;100.00;100417.09;4918336;29;20039;-88
2022/10/19 01:39:17;;;;;;;23.65;16.52;;;;;;;12.16;100.00;100403.31;4918474;29;20356;-88
2022/10/19 01:41:54;;;;;;;19.80;16.60;;;;;;;12.27;100.00;100429.00;4917935;29;20481;-88
2022/10/19 01:44:55;;;;;;;22.05;18.02;;;;;;;12.26;100.00;100427.28;4934054;29;20028;-88
2022/10/19 01:47:49;;;;;;;27.27;19.20;;;;;;;12.23;100.00;100417.84;4915084;29;20170;-88
2022/10/19 01:50:30;;;;;;;25.70;18.17;;;;;;;12.21;100.00;100417.03;4971325;28;20038;-88
2022/10/19 01:52:57;;;;;;;23.95;18.27;;;;;;;12.27;100.00;100426.41;4972286;28;20089;-88
2022/10/19 01:55:26;;;;;;;22.67;18.33;;;;;;;12.29;100.00;100421.09;5010406;28;20552;-88
2022/10/19 01:57:57;;;;;;;23.40;18.58;;;;;;;12.28;100.00;100416.78;5030758;28;20506;-88
2022/10/19 02:00:23;;;;;;;21.80;17.90;;;;;;;12.29;100.00;100415.88;5014434;28;20025;-89
2022/10/19 02:02:51;;;;;;;30.92;20.38;;;;;;;12.30;100.00;100415.81;5030869;28;20033;-89
2022/10/19 02:05:20;;;;;;;22.70;18.80;;;;;;;12.30;100.00;100417.56;5030986;28;20140;-88
2022/10/19 02:07:53;;;;;;;22.63;19.05;;;;;;;12.29;100.00;100414.09;5014181;28;20025;-89
2022/10/19 02:10:20;;;;;;;29.02;19.52;;;;;;;12.29;100.00;100419.34;5031017;28;20044;-89
2022/10/19 02:12:46;;;;;;;22.30;18.23;;;;;;;12.29;100.00;100414.09;5030649;28;20025;-88
2022/10/19 02:15:16;;;;;;;23.90;20.08;;;;;;;12.28;100.00;100420.25;5014178;28;20604;-88
2022/10/19 02:17:46;;;;;;;24.10;18.77;;;;;;;12.26;100.00;100421.22;5030689;28;20041;-89
2022/10/19 02:20:12;;;;;;;25.27;19.55;;;;;;;12.22;100.00;100408.31;5030884;28;20060;-89
2022/10/19 02:22:38;;;;;;;25.92;19.33;;;;;;;12.14;100.00;100399.94;5030480;28;20037;-88
2022/10/19 02:25:05;;;;;;;27.85;20.17;;;;;;;12.06;100.00;100391.56;5051049;28;20036;-88
2022/10/19 02:27:31;;;;;;;26.80;20.73;;;;;;;12.14;100.00;100409.53;5052725;28;20168;-88
2022/10/19 02:29:56;;;;;;;21.40;18.02;;;;;;;11.98;100.00;100388.41;5053074;28;20029;-88
2022/10/19 02:32:22;;;;;;;25.95;19.10;;;;;;;12.13;100.00;100424.31;5035050;28;20059;-89
2022/10/19 02:34:47;;;;;;;24.10;19.60;;;;;;;12.06;100.00;100412.44;5034779;28;20483;-89
2022/10/19 02:37:12;;;;;;;25.52;19.20;;;;;;;12.10;100.00;100415.78;5052699;28;20148;-90
2022/10/19 02:39:38;;;;;;;27.88;20.60;;;;;;;12.03;100.00;100398.66;5034549;28;20081;-89
2022/10/19 02:42:16;;;;;;;27.27;20.90;;;;;;;12.05;100.00;100407.28;5052565;28;20021;-90
2022/10/19 02:44:52;;;;;;;23.98;19.85;;;;;;;12.06;100.00;100415.06;5034473;28;20017;-90
2022/10/19 02:47:38;;;;;;;26.70;20.27;;;;;;;12.05;100.00;100409.88;5052906;28;20108;-89
2022/10/19 02:50:05;;;;;;;24.83;21.02;;;;;;;11.96;100.00;100398.06;5034638;28;20495;-91
2022/10/19 02:52:31;;;;;;;27.10;20.98;;;;;;;12.08;100.00;100404.56;5034394;28;20021;-90
2022/10/19 02:54:56;;;;;;;28.77;22.92;;;;;;;11.99;100.00;100388.34;5052319;28;20076;-90
2022/10/19 02:57:24;;;;;;;27.63;21.02;;;;;;;11.95;100.00;100391.13;5052828;28;20100;-89
2022/10/19 02:59:50;;;;;;;28.40;21.05;;;;;;;11.95;100.00;100389.38;5052099;28;20021;-89
2022/10/19 03:02:16;;;;;;;29.83;21.30;;;;;;;11.97;100.00;100395.41;5034482;28;20025;-90
2022/10/19 03:04:44;;;;;;;26.70;20.45;;;;;;;11.96;100.00;100393.69;5051921;28;20024;-89
2022/10/19 03:07:11;;;;;;;24.15;20.35;;;;;;;11.92;100.00;100397.31;5034234;28;20025;-89
2022/10/19 03:09:37;;;;;;;28.75;21.35;;;;;;;11.88;100.00;100408.84;5049498;28;20037;-90
2022/10/19 03:12:02;;;;;;;25.55;20.45;;;;;;;11.89;100.00;100407.06;5049474;28;20491;-90
2022/10/19 03:14:28;;;;;;;26.58;21.23;;;;;;;11.82;100.00;100397.72;5049699;28;20585;-89
2022/10/19 03:16:53;;;;;;;26.38;20.17;;;;;;;11.70;100.00;100394.69;5032772;28;20507;-90
2022/10/19 03:19:19;;;;;;;24.02;19.10;;;;;;;11.71;100.00;100401.63;5032706;28;20071;-90
2022/10/19 03:21:44;;;;;;;22.42;19.40;;;;;;;11.58;100.00;100383.88;5032621;28;20074;-90
2022/10/19 03:24:09;;;;;;;27.45;19.42;;;;;;;11.63;100.00;100394.97;5032699;28;20039;-90
2022/10/19 03:26:35;;;;;;;30.83;20.67;;;;;;;11.59;100.00;100390.81;5032568;28;20076;-90
2022/10/19 03:29:00;;;;;;;24.00;18.70;;;;;;;11.69;100.00;100408.66;5049616;28;20476;-89
2022/10/19 03:31:26;;;;;;;25.92;20.83;;;;;;;11.69;100.00;100402.59;5032827;28;20024;-90
2022/10/19 03:33:51;;;;;;;28.08;20.25;;;;;;;11.64;100.00;100394.09;5032471;28;20025;-90
2022/10/19 03:36:26;;;;;;;23.67;19.42;;;;;;;11.64;100.00;100394.09;5032529;28;20066;-91
2022/10/19 03:38:53;;;;;;;23.00;18.70;;;;;;;11.63;100.00;100395.88;5031672;28;20594;-91
2022/10/19 03:41:20;;;;;;;28.38;20.67;;;;;;;11.59;100.00;100396.88;5033615;28;20079;-90
2022/10/19 03:43:45;;;;;;;25.25;19.30;;;;;;;11.51;100.00;100391.13;5033709;28;20017;-89
2022/10/19 03:46:10;;;;;;;29.67;19.48;;;;;;;11.53;100.00;100399.72;5033621;28;20020;-89
2022/10/19 03:48:36;;;;;;;27.88;20.35;;;;;;;11.51;100.00;100396.34;5033811;28;20027;-91
2022/10/19 03:51:08;;;;;;;25.95;19.50;;;;;;;11.48;100.00;100388.63;5034730;28;20452;-90
2022/10/19 03:53:34;;;;;;;25.63;18.17;;;;;;;11.43;100.00;100387.94;5033880;28;20020;-90
2022/10/19 03:56:04;;;;;;;24.83;17.92;;;;;;;11.35;100.00;100392.59;5033490;28;20023;-90
2022/10/19 03:58:31;;;;;;;26.83;19.45;;;;;;;11.39;100.00;100391.59;5033892;28;20033;-89
2022/10/19 04:00:57;;;;;;;31.20;19.08;;;;;;;11.31;100.00;100393.63;5033551;28;20074;-89
2022/10/19 04:03:22;;;;;;;25.17;19.20;;;;;;;11.39;100.00;100389.81;5051825;28;20120;-90
2022/10/19 04:05:47;;;;;;;27.13;18.02;;;;;;;11.40;100.00;100399.34;5033478;28;20024;-90
2022/10/19 04:08:13;;;;;;;25.63;17.65;;;;;;;11.32;100.00;100392.72;5033702;28;20025;-89
2022/10/19 04:10:38;;;;;;;23.35;17.17;;;;;;;11.38;100.00;100408.16;5033711;28;20411;-90
2022/10/19 04:13:03;;;;;;;18.85;16.48;;;;;;;11.37;100.00;100409.03;5033420;28;20611;-90
2022/10/19 04:15:29;;;;;;;22.60;16.38;;;;;;;11.38;100.00;100408.16;5033413;28;20479;-89
2022/10/19 04:17:54;;;;;;;23.05;16.25;;;;;;;11.36;100.00;100402.97;5033493;28;20506;-90
2022/10/19 04:20:19;;;;;;;23.95;15.68;;;;;;;11.37;100.00;100404.66;5033671;28;20444;-90
2022/10/19 04:22:45;;;;;;;26.55;16.70;;;;;;;11.33;100.00;100395.25;4989238;28;20510;-90
2022/10/19 04:25:11;;;;;;;21.63;16.55;;;;;;;11.36;100.00;100395.16;4989582;28;20513;-90
2022/10/19 04:27:36;;;;;;;23.10;17.13;;;;;;;11.39;100.00;100404.63;4973808;28;20066;-93
2022/10/19 04:30:03;;;;;;;21.05;16.15;;;;;;;11.32;100.00;100392.72;4974068;28;20028;-94
2022/10/19 04:32:28;;;;;;;23.48;15.85;;;;;;;11.24;100.00;100406.88;4973913;28;20031;-94
2022/10/19 04:34:53;;;;;;;20.17;15.40;;;;;;;11.14;100.00;100399.47;4990117;28;20490;-93
2022/10/19 04:37:19;;;;;;;20.08;15.05;;;;;;;11.09;100.00;100390.97;4974041;28;20049;-92
2022/10/19 04:39:44;;;;;;;20.77;14.20;;;;;;;11.01;100.00;100401.69;4973501;28;20027;-93
2022/10/19 04:42:10;;;;;;;20.52;14.52;;;;;;;10.98;100.00;100401.78;4989843;28;20173;-94
2022/10/19 04:44:35;;;;;;;21.45;15.32;;;;;;;10.95;100.00;100405.34;4989622;28;20262;-93
2022/10/19 04:47:01;;;;;;;33.13;20.63;;;;;;;10.93;100.00;100412.38;4989701;28;20429;-93
2022/10/19 04:49:27;;;;;;;29.35;16.70;;;;;;;10.93;100.00;100406.31;4991958;28;20055;-94
2022/10/19 04:51:53;;;;;;;25.63;16.05;;;;;;;10.93;100.00;100407.16;4993347;28;20022;-94
2022/10/19 04:54:18;;;;;;;22.95;14.85;;;;;;;10.96;100.00;100406.22;5023312;28;20112;-94
2022/10/19 04:57:07;;;;;;;15.85;13.82;;;;;;;10.94;100.00;100408.00;5017495;28;20028;-95
2022/10/19 04:59:36;;;;;;;26.05;13.85;;;;;;;10.85;100.00;100395.31;4977161;28;20097;-95
2022/10/19 05:02:03;;;;;;;19.23;13.18;;;;;;;10.89;100.00;100405.56;4996479;28;20033;-95
2022/10/19 05:04:32;;;;;;;16.27;12.27;;;;;;;10.88;100.00;100416.06;4996855;28;20104;-94
2022/10/19 05:07:18;;;;;;;16.23;11.60;;;;;;;10.84;100.00;100404.06;4957544;28;20047;-95
2022/10/19 05:10:05;;;;;;;16.02;11.23;;;;;;;10.89;100.00;100402.97;4954150;29;20039;-94
2022/10/19 05:12:33;;;;;;;15.57;12.60;;;;;;;10.87;100.00;100396.97;4919381;29;20044;-94
2022/10/19 05:14:58;;;;;;;21.30;12.05;;;;;;;10.91;100.00;100403.78;4918502;29;20391;-91
2022/10/19 05:17:24;;;;;;;16.50;10.25;;;;;;;10.92;100.00;100394.19;4918980;29;20036;-93
2022/10/19 05:19:50;;;;;;;18.00;10.80;;;;;;;10.92;100.00;100405.47;4918704;29;20415;-93
2022/10/19 05:22:15;;;;;;;22.30;12.18;;;;;;;10.91;100.00;100405.50;4918766;29;20035;-93
2022/10/19 05:24:41;;;;;;;13.05;10.48;;;;;;;10.90;100.00;100406.41;4918699;29;20031;-92
2022/10/19 05:27:06;;;;;;;18.98;11.27;;;;;;;10.90;100.00;100414.25;4927152;29;20554;-93
2022/10/19 05:29:32;;;;;;;11.70;10.07;;;;;;;10.89;100.00;100413.41;4937724;29;20474;-93
2022/10/19 05:31:58;;;;;;;13.43;9.75;;;;;;;10.87;100.00;100409.13;4937417;29;20035;-93
2022/10/19 05:34:24;;;;;;;12.77;9.05;;;;;;;10.85;100.00;100418.78;4937596;29;20039;-93
2022/10/19 05:36:49;;;;;;;13.80;8.75;;;;;;;10.83;100.00;100415.34;4937796;28;20031;-93
2022/10/19 05:39:17;;;;;;;16.70;7.95;;;;;;;10.80;100.00;100416.31;4972988;28;20465;-93
2022/10/19 05:41:46;;;;;;;14.63;8.63;;;;;;;10.78;100.00;100418.13;4972676;28;20386;-93
2022/10/19 05:44:20;;;;;;;12.40;7.60;;;;;;;10.76;100.00;100419.94;4956556;28;20356;-93
2022/10/19 05:46:46;;;;;;;14.95;8.00;;;;;;;10.82;100.00;100432.75;4972520;28;20431;-92
2022/10/19 05:49:13;;;;;;;11.07;7.78;;;;;;;10.82;100.00;100431.91;5003351;28;20427;-93
2022/10/19 05:51:39;;;;;;;15.48;8.25;;;;;;;10.81;100.00;100428.44;5035935;28;20487;-93
2022/10/19 05:54:05;;;;;;;11.82;6.90;;;;;;;10.80;100.00;100431.13;5035881;28;20024;-93
2022/10/19 05:56:31;;;;;;;10.77;6.60;;;;;;;10.76;100.00;100427.75;5035847;28;20078;-93
2022/10/19 05:59:00;;;;;;;13.07;6.72;;;;;;;10.77;100.00;100429.47;5035960;28;20029;-92
2022/10/19 06:01:27;;;;;;;12.50;6.55;;;;;;;10.78;100.00;100431.16;5034815;28;20112;-93
2022/10/19 06:03:55;;;;;;;12.95;7.15;;;;;;;10.79;100.00;100432.88;5035926;28;20013;-93
2022/10/19 06:06:21;;;;;;;12.07;6.20;;;;;;;10.79;100.00;100438.09;5035904;28;20021;-94
2022/10/19 06:08:47;;;;;;;14.35;6.65;;;;;;;10.82;100.00;100439.72;5035838;28;20017;-93
2022/10/19 06:11:19;;;;;;;11.90;6.88;;;;;;;10.75;100.00;100436.50;5035524;28;20112;-93
2022/10/19 06:13:46;;;;;;;9.82;6.50;;;;;;;10.83;100.00;100450.09;5035728;28;20021;-93
2022/10/19 06:16:14;;;;;;;13.68;6.97;;;;;;;10.83;100.00;100444.91;5035293;28;20036;-93
2022/10/19 06:18:40;;;;;;;12.57;7.50;;;;;;;10.79;100.00;100447.63;5035281;28;20055;-94
2022/10/19 06:21:09;;;;;;;9.88;6.65;;;;;;;10.82;100.00;100442.31;5035440;28;20029;-93
2022/10/19 06:23:35;;;;;;;9.68;7.22;;;;;;;10.82;100.00;100458.81;5035482;28;20074;-93
2022/10/19 06:26:08;;;;;;;11.85;7.05;;;;;;;10.77;100.00;100454.66;5035054;28;20501;-93
2022/10/19 06:28:35;;;;;;;9.18;6.63;;;;;;;10.60;100.00;100423.97;5035608;28;20385;-94
2022/10/19 06:31:01;;;;;;;10.52;6.57;;;;;;;10.79;100.00;100456.34;5035303;28;20021;-93
2022/10/19 06:33:28;;;;;;;9.90;6.00;;;;;;;10.78;100.00;100466.78;5035166;28;20079;-93
2022/10/19 06:35:54;;;;;;;11.20;6.53;;;;;;;10.82;100.00;100469.22;5035270;28;20025;-92
2022/10/19 06:38:20;;;;;;;17.88;6.60;;;;;;;10.82;100.00;100469.22;5035321;28;20017;-94
2022/10/19 06:40:47;;;;;;;10.95;7.05;;;;;;;10.86;100.00;100470.81;5035249;28;20399;-93
2022/10/19 06:43:14;;;;;;;18.77;8.05;;;;;;;10.87;100.00;100456.91;5034957;28;20025;-93
2022/10/19 06:45:40;;;;;;;12.60;8.27;;;;;;;10.94;100.00;100465.34;5035070;28;20086;-93
2022/10/19 06:48:06;;;;;;;13.75;6.75;;;;;;;10.98;100.00;100462.59;5034927;28;20024;-93
2022/10/19 06:50:32;;;;;;;14.98;6.70;;;;;;;11.02;100.00;100462.47;5035277;28;20032;-94
2022/10/19 06:52:58;;;;;;;11.07;6.63;;;;;;;11.11;100.00;100460.38;5034970;28;20374;-94
2022/10/19 06:55:25;;;;;;;11.18;6.28;;;;;;;11.14;100.00;100443.78;5010924;28;20040;-93
2022/10/19 06:57:50;;;;;;;9.63;6.10;;;;;;;11.30;100.00;100471.03;5010633;28;20568;-94
2022/10/19 07:00:16;;;;;;;8.50;6.10;;;;;;;11.41;100.00;100468.00;5010387;28;20030;-94
2022/10/19 07:02:42;;;;;;;9.10;5.68;;;;;;;11.48;100.00;100465.13;5010752;28;20018;-93
2022/10/19 07:05:09;;;;;;;15.40;6.55;;;;;;;11.47;100.00;100475.63;5010507;28;20045;-94
2022/10/19 07:07:35;;;;;;;9.68;6.00;;;;;;;11.44;100.00;100470.50;5010716;28;20610;-93
2022/10/19 07:10:01;;;;;;;8.52;5.80;;;;;;;11.48;100.00;100488.59;5010324;28;20525;-93
2022/10/19 07:12:26;;;;;;;13.30;6.80;;;;;;;11.47;100.00;100491.28;5010373;28;20461;-93
2022/10/19 07:14:54;;;;;;;13.02;5.93;;;;;;;11.44;100.00;100483.56;5010143;28;20037;-92
2022/10/19 07:17:20;;;;;;;10.68;6.53;;;;;;;11.45;100.00;100490.47;5010420;28;20410;-93
2022/10/19 07:19:46;;;;;;;8.13;6.20;;;;;;;11.46;100.00;100498.25;4994206;28;20128;-93
2022/10/19 07:22:12;;;;;;;10.30;6.28;;;;;;;11.45;100.00;100500.91;5009964;28;20179;-93
2022/10/19 07:24:37;;;;;;;12.60;5.97;;;;;;;11.46;100.00;100499.97;5010282;28;20045;-93
2022/10/19 07:27:03;;;;;;;12.00;6.10;;;;;;;11.49;100.00;100498.13;5041156;28;20044;-93
2022/10/19 07:29:29;;;;;;;14.52;6.22;;;;;;;11.54;100.00;100499.69;5034137;28;20409;-93
2022/10/19 07:31:54;;;;;;;12.73;5.80;;;;;;;11.55;100.00;100494.44;5034460;28;20059;-93
2022/10/19 07:34:20;;;;;;;10.65;5.88;;;;;;;11.59;100.00;100495.19;5033973;28;20025;-93
2022/10/19 07:36:46;;;;;;;15.50;6.45;;;;;;;11.64;100.00;100494.09;5034183;28;20028;-92
2022/10/19 07:39:13;;;;;;;9.38;5.72;;;;;;;11.72;100.00;100497.28;5034273;28;20437;-93
2022/10/19 07:41:39;;;;;;;12.45;5.78;;;;;;;11.92;100.00;100488.69;5034353;28;20017;-93
2022/10/19 07:44:05;;;;;;;12.23;6.53;;;;;;;12.06;100.00;100488.19;5034011;28;20105;-92
2022/10/19 07:46:36;;;;;;;12.57;6.18;;;;;;;12.12;100.00;100497.53;5034558;28;20025;-94
2022/10/19 07:49:03;;;;;;;11.88;6.00;;;;;;;12.15;100.00;100500.03;5034052;28;20067;-92
2022/10/19 07:51:29;;;;;;;9.82;5.72;;;;;;;12.11;100.00;100501.03;5031410;28;20476;-93
2022/10/19 07:53:57;;;;;;;12.40;5.55;;;;;;;12.18;100.00;100511.19;5034266;28;20124;-94
2022/10/19 07:56:24;;;;;;;11.25;5.65;;;;;;;12.22;100.00;100511.94;5034129;28;20350;-93
2022/10/19 07:58:52;;;;;;;11.75;6.05;;;;;;;12.23;100.00;100514.47;5034207;28;20108;-94
2022/10/19 08:01:21;;;;;;;10.32;5.43;;;;;;;12.24;100.00;100517.94;5034220;28;20029;-93
2022/10/19 08:03:48;;;;;;;9.85;4.93;;;;;;;12.19;100.00;100507.66;5034404;28;20021;-94
2022/10/19 08:06:17;;;;;;;12.18;5.57;;;;;;;12.25;100.00;100503.94;5033943;28;20023;-94
2022/10/19 08:08:45;;;;;;;6.80;4.82;;;;;;;12.31;100.00;100511.56;5033994;28;20025;-93
2022/10/19 08:11:13;;;;;;;15.73;5.47;;;;;;;12.39;100.00;100509.50;5033631;28;20021;-93
2022/10/19 08:13:40;;;;;;;9.25;5.30;;;;;;;12.42;100.00;100508.50;5034191;28;20372;-93
2022/10/19 08:16:21;;;;;;;10.18;5.40;;;;;;;12.38;100.00;100501.69;5033966;28;20075;-93
2022/10/19 08:18:48;;;;;;;7.65;3.97;;;;;;;12.40;100.00;100508.56;5034147;28;20029;-94
2022/10/19 08:21:14;;;;;;;6.25;3.95;;;;;;;12.48;100.00;100513.50;5033689;28;20437;-95
2022/10/19 08:23:40;;;;;;;8.63;4.03;;;;;;;12.59;100.00;100500.81;5034602;28;20111;-94
2022/10/19 08:26:06;;;;;;;7.30;4.00;;;;;;;12.77;100.00;100519.25;5037776;28;20028;-95
2022/10/19 08:28:32;;;;;;;7.05;4.05;;;;;;;12.76;100.00;100512.34;5037987;28;20063;-94
2022/10/19 08:30:58;;;;;;;6.30;3.88;;;;;;;12.73;100.00;100511.56;5037956;28;20447;-94
2022/10/19 08:33:25;;;;;;;6.30;3.90;;;;;;;12.74;100.00;100507.19;5037682;28;20079;-94
2022/10/19 08:35:52;;;;;;;6.18;3.50;;;;;;;12.79;99.80;100514.84;5037736;28;20090;-93
2022/10/19 08:38:19;;;;;;;8.55;3.53;;;;;;;12.83;99.64;100517.25;5032781;28;20370;-94
2022/10/19 08:40:45;;;;;;;6.78;3.63;;;;;;;12.76;98.78;100520.19;5033207;28;20037;-93
2022/10/19 08:43:35;;;;;;;10.40;5.50;;;;;;;12.69;99.25;100515.22;5035227;28;20103;-94
2022/10/19 08:46:32;;;;;;;7.85;3.50;;;;;;;12.74;98.76;100509.81;5032775;28;20539;-94
2022/10/19 08:49:00;;;;;;;7.45;3.50;;;;;;;12.71;98.72;100515.16;5032817;28;20038;-94
2022/10/19 08:51:27;;;;;;;8.32;4.47;;;;;;;12.69;99.13;100520.44;5032843;28;20025;-94
2022/10/19 08:53:59;;;;;;;11.95;3.63;;;;;;;12.77;99.09;100508.81;5032806;28;20439;-94
2022/10/19 08:56:43;;;;;;;5.53;3.10;;;;;;;12.77;98.50;100500.97;5032841;28;20028;-94
2022/10/19 08:59:29;;;;;;;5.30;2.88;;;;;;;12.99;97.63;100510.47;5016117;28;20478;-94
2022/10/19 09:02:11;;;;;;;5.57;3.25;;;;;;;13.09;96.45;100502.22;5032894;28;20022;-94
2022/10/19 09:04:40;;;;;;;6.40;3.47;;;;;;;13.25;96.11;100510.28;5032737;28;20496;-95
2022/10/19 09:07:18;;;;;;;6.00;3.88;;;;;;;13.35;96.18;100515.03;5032237;28;20057;-94
2022/10/19 09:09:50;;;;;;;9.00;3.55;;;;;;;13.52;95.81;100511.66;5036788;28;20036;-94
2022/10/19 09:12:21;;;;;;;8.98;3.03;;;;;;;13.61;95.08;100520.84;5036849;28;20460;-95
2022/10/19 09:14:59;;;;;;;4.38;2.55;;;;;;;13.44;94.06;100480.63;5037058;28;20043;-93
2022/10/19 09:17:27;;;;;;;5.10;2.40;;;;;;;13.73;93.64;100517.69;5036710;28;20086;-94
2022/10/19 09:19:53;;;;;;;4.72;2.63;;;;;;;13.82;92.96;100519.91;5036690;28;20025;-95
2022/10/19 09:22:28;;;;;;;4.10;2.30;;;;;;;13.92;92.38;100528.19;5036878;28;20013;-94
2022/10/19 09:25:20;;;;;;;9.75;2.92;;;;;;;14.00;91.71;100531.28;5032232;28;20029;-94
2022/10/19 09:28:05;;;;;;;3.40;2.03;;;;;;;13.99;90.68;100508.66;5012387;28;20053;-94
2022/10/19 09:30:36;;;;;;;4.32;2.47;;;;;;;14.14;89.84;100536.72;5012680;28;20119;-94
2022/10/19 09:33:02;;;;;;;5.53;2.78;;;;;;;14.14;90.03;100538.50;5012246;28;20042;-95
2022/10/19 09:35:32;;;;;;;6.45;2.40;;;;;;;14.02;88.62;100534.69;4994748;28;20382;-94
2022/10/19 09:38:00;;;;;;;3.17;2.35;;;;;;;14.13;89.05;100540.28;5012262;28;20116;-95
2022/10/19 09:40:28;;;;;;;4.00;1.90;;;;;;;14.10;89.05;100539.56;5012099;28;20354;-94
2022/10/19 09:42:57;;;;;;;4.38;2.35;;;;;;;14.11;88.79;100538.63;5012001;28;20607;-93
2022/10/19 09:45:30;;;;;;;4.40;2.40;;;;;;;14.07;88.71;100540.53;5011859;28;20373;-93
2022/10/19 09:47:57;;;;;;;7.50;4.22;;;;;;;14.06;88.68;100543.25;5012320;28;20042;-94
2022/10/19 09:50:25;;;;;;;6.82;4.32;;;;;;;13.93;89.15;100522.84;5012037;28;20055;-95
2022/10/19 09:52:54;;;;;;;5.40;2.05;;;;;;;14.01;88.86;100540.00;5012272;28;20049;-95
2022/10/19 09:55:33;;;;;;;5.38;2.10;;;;;;;13.98;88.45;100527.88;5011460;28;20503;-94
2022/10/19 09:58:27;;;;;;;3.65;2.20;;;;;;;14.09;87.97;100537.88;5015008;28;20128;-94
2022/10/19 10:00:55;;;;;;;21.60;9.57;;;;;;;14.28;87.38;100546.53;4975926;28;20033;-95
2022/10/19 10:03:29;;;;;;;15.45;8.65;;;;;;;14.26;87.24;100540.53;4990555;28;20037;-95
2022/10/19 10:05:58;;;;;;;8.02;4.47;;;;;;;14.37;85.72;100553.16;5011876;28;20542;-95
2022/10/19 10:08:26;;;;;;;6.75;4.28;;;;;;;14.51;86.43;100549.88;4995193;28;20120;-93
2022/10/19 10:10:57;;;;;;;9.25;3.90;;;;;;;14.54;86.40;100547.97;4995348;28;20025;-95
2022/10/19 10:13:26;;;;;;;3.45;2.00;;;;;;;14.50;85.63;100541.19;5011704;28;20469;-95
2022/10/19 10:16:23;;;;;;;11.50;6.05;;;;;;;14.37;83.51;100538.25;4995375;28;20018;-96
2022/10/19 10:19:11;;;;;;;13.65;6.85;;;;;;;14.44;84.00;100544.03;4953432;29;20553;-95
2022/10/19 10:21:48;;;;;;;7.85;4.25;;;;;;;14.54;84.19;100532.22;4953534;28;20023;-95
2022/10/19 10:24:15;;;;;;;20.95;11.63;;;;;;;14.66;83.94;100538.63;4953092;28;20475;-94
2022/10/19 10:26:52;;;;;;;3.72;2.75;;;;;;;14.63;83.80;100523.91;4952870;28;20043;-94
2022/10/19 10:29:24;;;;;;;25.42;14.65;;;;;;;14.79;83.71;100538.88;4952854;28;20411;-94
2022/10/19 10:32:05;;;;;;;30.55;15.68;;;;;;;14.80;82.62;100535.34;4953030;29;20031;-95
2022/10/19 10:34:38;;;;;;;9.77;4.60;;;;;;;14.67;82.55;100533.31;4952905;29;20035;-95
2022/10/19 10:37:14;;;;;;;3.63;2.33;;;;;;;14.53;82.15;100527.03;4963020;28;20066;-96
2022/10/19 10:39:42;;;;;;;15.93;9.38;;;;;;;14.62;82.46;100545.81;4953085;29;20117;-95
2022/10/19 10:42:18;;;;;;;4.32;2.50;;;;;;;14.58;82.85;100538.16;4937042;29;20039;-96
2022/10/19 10:44:52;;;;;;;4.25;2.10;;;;;;;14.36;82.07;100531.31;4937026;29;20125;-95
2022/10/19 10:47:20;;;;;;;2.90;2.25;;;;;;;14.11;82.54;100525.53;4936586;29;20164;-95
2022/10/19 10:49:59;;;;;;;3.15;1.60;;;;;;;14.05;82.97;100534.53;4980874;28;20029;-94
2022/10/19 10:52:30;;;;;;;2.58;1.70;;;;;;;13.94;82.96;100531.56;5010992;28;20084;-96
2022/10/19 10:55:13;;;;;;;3.15;1.90;;;;;;;13.98;82.87;100540.97;5011451;28;20567;-95
2022/10/19 10:57:45;;;;;;;2.92;1.48;;;;;;;14.07;82.05;100537.91;4994876;28;20068;-95
2022/10/19 11:00:20;;;;;;;4.72;1.50;;;;;;;13.85;81.98;100516.28;5010974;28;20030;-96
2022/10/19 11:03:31;;;;;;;2.05;1.65;;;;;;;13.72;82.86;100534.31;5010966;28;20539;-95
2022/10/19 11:05:59;;;;;;;2.75;1.42;;;;;;;13.57;83.39;100527.16;4971773;28;20038;-95
2022/10/19 11:09:00;;;;;;;3.22;1.60;;;;;;;13.48;83.23;100541.50;4955614;28;20126;-96
2022/10/19 11:11:36;;;;;;;2.33;1.80;;;;;;;13.39;83.66;100544.53;4955657;28;20038;-96
2022/10/19 11:14:27;;;;;;;6.03;3.58;;;;;;;13.24;84.31;100538.22;4971760;28;20493;-95
2022/10/19 11:16:57;;;;;;;3.00;1.90;;;;;;;13.26;84.87;100543.38;4971972;28;20022;-95
2022/10/19 11:19:35;;;;;;;7.82;3.90;;;;;;;13.27;84.88;100550.28;4971610;28;20479;-96
2022/10/19 11:22:19;;;;;;;2.90;2.10;;;;;;;13.39;85.17;100544.53;4971797;28;20093;-96
2022/10/19 11:24:47;;;;;;;7.47;4.53;;;;;;;13.50;85.25;100544.06;4955700;28;20356;-94